Hovedside
METAR-TAF:

METAR-TAF

Lufthavner :

Jyväskylä lufthavn

Jyväskylä, Finland

breddegrad: 62-24N, lengdegrad: 025-41E, høyde over havet: 141 m

Gjeldene værobservasjon

Denne rapporten ble laget for 18 minutter siden, klokken 04:50 UTC
Flau vind
Temperatur 7°C
Luftfuktighet 61%
Trykk 1026 hPa
Sikt 10 km eller mer
ingen skyer under 1500 m og ingen bygeskyer

METAR: EFJY 250450Z AUTO VRB00KT CAVOK 07/00 Q1026

Tid: 08:08 (05:08 UTC)

Varsel

Denne rapporten ble laget for 2 timer og 45 minutter siden, klokken 02:23 UTC
Varsel gyldig fra 25. klokken 03 UTC til 26. klokken 03 UTC
Vind 2 kt fra skiftende retning
Sikt 10 km eller mer
ingen skyer under 1500 m og ingen bygeskyer

TAF: EFJY 250223Z 2503/2603 VRB02KT CAVOK

Værobservasjoner og værvarsel for over 4000 flyplasser (METAR- og TAF-rapporter).

Tilgjengelige stasjoner er representert av de røde og gule prikkene på kartet.

Hold musepekeren over prikken for å se navnet på stasjonen.

Klikk så for å se værobservasjoner og -varsler.

For å forandre kartet kan du klikke på den grønne knappen med svart kryss for å zoome inn, på den grønne knappen med strek for å zoome ut, eller på de grønne pilene for å se tilstøtende kart.


METAR-TAF: